createdAt,value
2017-11-03T00:00:22.516Z,99.90
2017-11-03T00:01:25.005Z,99.90
2017-11-03T00:02:28.306Z,99.90
2017-11-03T00:03:30.770Z,99.90
2017-11-03T00:04:33.244Z,99.90
2017-11-03T00:05:35.766Z,99.90
2017-11-03T00:06:38.287Z,99.90
2017-11-03T00:07:40.750Z,99.90
2017-11-03T00:08:43.214Z,99.90
2017-11-03T00:09:46.440Z,99.90
2017-11-03T00:10:49.670Z,99.90
2017-11-03T00:11:52.224Z,99.90
2017-11-03T00:12:55.493Z,99.90
2017-11-03T00:13:57.977Z,99.90
2017-11-03T00:15:01.365Z,99.90
2017-11-03T00:16:03.912Z,99.90
2017-11-03T00:17:06.381Z,99.90
2017-11-03T00:18:09.607Z,99.90
2017-11-03T00:19:12.090Z,99.90
2017-11-03T00:20:14.561Z,99.90
2017-11-03T00:21:17.051Z,99.90
2017-11-03T00:22:19.552Z,99.90
2017-11-03T00:23:22.024Z,99.90
2017-11-03T00:24:24.578Z,99.90
2017-11-03T00:25:27.882Z,99.90
2017-11-03T00:26:30.472Z,99.90
2017-11-03T00:27:32.937Z,99.90
2017-11-03T00:28:35.394Z,99.90
2017-11-03T00:29:38.645Z,99.90
2017-11-03T00:30:41.099Z,99.90
2017-11-03T00:31:43.611Z,99.90
2017-11-03T00:32:46.092Z,99.90
2017-11-03T00:33:48.552Z,99.90
2017-11-03T00:34:51.021Z,99.90
2017-11-03T00:35:53.500Z,99.90
2017-11-03T00:36:56.015Z,99.90
2017-11-03T00:37:59.238Z,99.90
2017-11-03T00:39:02.488Z,99.90
2017-11-03T00:40:05.705Z,99.90
2017-11-03T00:41:08.176Z,99.90
2017-11-03T00:42:10.706Z,99.90
2017-11-03T00:43:13.185Z,99.90
2017-11-03T00:44:15.659Z,99.90
2017-11-03T00:45:18.136Z,99.90
2017-11-03T00:46:20.600Z,99.90
2017-11-03T00:47:23.079Z,99.90
2017-11-03T00:48:25.654Z,99.90
2017-11-03T00:49:28.158Z,99.90
2017-11-03T00:50:31.426Z,99.90
2017-11-03T00:51:33.920Z,99.90
2017-11-03T00:52:37.438Z,99.90
2017-11-03T00:53:39.936Z,99.90
2017-11-03T00:54:42.465Z,99.90
2017-11-03T00:55:44.919Z,99.90
2017-11-03T00:56:47.372Z,99.90
2017-11-03T00:57:50.659Z,99.90
2017-11-03T00:58:53.210Z,99.90
2017-11-03T00:59:55.685Z,99.90
2017-11-03T01:00:58.201Z,99.90
2017-11-03T01:02:02.370Z,99.90
2017-11-03T01:03:05.591Z,99.90
2017-11-03T01:04:08.072Z,99.90
2017-11-03T01:05:10.561Z,99.90
2017-11-03T01:06:13.052Z,99.90
2017-11-03T01:07:15.634Z,99.90
2017-11-03T01:08:18.089Z,99.90
2017-11-03T01:09:20.554Z,99.90
2017-11-03T01:10:23.810Z,99.90
2017-11-03T01:11:26.592Z,99.90
2017-11-03T01:12:29.088Z,99.90
2017-11-03T01:13:31.554Z,99.90
2017-11-03T01:14:34.128Z,99.90
2017-11-03T01:15:36.626Z,99.90
2017-11-03T01:16:39.856Z,99.90
2017-11-03T01:17:42.335Z,99.90
2017-11-03T01:18:44.833Z,99.90
2017-11-03T01:19:48.054Z,99.90
2017-11-03T01:20:51.297Z,99.90
2017-11-03T01:21:53.771Z,99.90
2017-11-03T01:22:56.267Z,99.90
2017-11-03T01:23:59.502Z,99.90
2017-11-03T01:25:02.823Z,99.90
2017-11-03T01:26:05.278Z,99.90
2017-11-03T01:27:07.795Z,99.90
2017-11-03T01:28:11.022Z,99.90
2017-11-03T01:29:13.490Z,99.90
2017-11-03T01:30:16.006Z,99.90
2017-11-03T01:31:19.238Z,99.90
2017-11-03T01:32:21.723Z,99.90
2017-11-03T01:33:24.179Z,99.90
2017-11-03T01:34:27.426Z,99.90
2017-11-03T01:35:30.662Z,99.90
2017-11-03T01:36:33.890Z,99.90
2017-11-03T01:37:36.442Z,99.90
2017-11-03T01:38:38.919Z,99.90
2017-11-03T01:39:41.397Z,99.90
2017-11-03T01:40:43.844Z,99.90
2017-11-03T01:41:46.303Z,99.90
2017-11-03T01:42:48.778Z,99.90
2017-11-03T01:43:51.274Z,99.90
2017-11-03T01:44:54.504Z,99.90
2017-11-03T01:45:56.983Z,99.90
2017-11-03T01:46:59.441Z,99.90
2017-11-03T01:48:03.409Z,99.90
2017-11-03T01:49:05.930Z,99.90
2017-11-03T01:50:08.378Z,99.90
2017-11-03T01:51:11.610Z,99.90
2017-11-03T01:52:14.880Z,99.90
2017-11-03T01:53:17.340Z,99.90
2017-11-03T01:54:19.809Z,99.90
2017-11-03T01:55:23.159Z,99.90
2017-11-03T01:56:26.385Z,99.90
2017-11-03T01:57:28.843Z,99.90
2017-11-03T01:58:31.320Z,99.90
2017-11-03T01:59:33.794Z,99.90
2017-11-03T02:00:36.295Z,99.90
2017-11-03T02:01:38.756Z,99.90
2017-11-03T02:02:41.209Z,99.90
2017-11-03T02:03:43.685Z,99.90
2017-11-03T02:04:46.901Z,99.90
2017-11-03T02:05:49.362Z,99.90
2017-11-03T02:06:51.847Z,99.90
2017-11-03T02:07:54.320Z,99.90
2017-11-03T02:08:56.847Z,99.90
2017-11-03T02:09:59.312Z,99.90
2017-11-03T02:11:01.848Z,99.90
2017-11-03T02:12:04.366Z,99.90
2017-11-03T02:13:06.938Z,99.90
2017-11-03T02:14:09.421Z,99.90
2017-11-03T02:15:11.879Z,99.90
2017-11-03T02:16:14.355Z,99.90
2017-11-03T02:17:16.823Z,99.90
2017-11-03T02:18:20.449Z,99.90
2017-11-03T02:19:23.720Z,99.90
2017-11-03T02:20:26.225Z,99.90
2017-11-03T02:21:29.490Z,99.90
2017-11-03T02:22:31.938Z,99.90
2017-11-03T02:23:34.391Z,99.90
2017-11-03T02:24:36.866Z,99.90
2017-11-03T02:25:39.349Z,99.90
2017-11-03T02:26:42.574Z,99.90
2017-11-03T02:27:45.031Z,99.90
2017-11-03T02:28:47.505Z,99.90
2017-11-03T02:29:49.954Z,99.90
2017-11-03T02:30:52.428Z,99.90
2017-11-03T02:31:54.900Z,99.90
2017-11-03T02:32:57.355Z,99.90
2017-11-03T02:33:59.905Z,99.90
2017-11-03T02:35:02.437Z,99.90
2017-11-03T02:36:04.950Z,99.90
2017-11-03T02:37:08.173Z,99.90
2017-11-03T02:38:11.430Z,99.90
2017-11-03T02:39:14.666Z,99.90
2017-11-03T02:40:17.936Z,99.90
2017-11-03T02:41:20.381Z,99.90
2017-11-03T02:42:22.860Z,99.90
2017-11-03T02:43:26.092Z,99.90
2017-11-03T02:44:28.547Z,99.90
2017-11-03T02:45:31.119Z,99.90
2017-11-03T02:46:33.631Z,99.90
2017-11-03T02:47:36.092Z,99.90
2017-11-03T02:48:38.552Z,99.90
2017-11-03T02:49:41.018Z,99.90
2017-11-03T02:50:43.596Z,99.90
2017-11-03T02:51:46.847Z,99.90
2017-11-03T02:52:49.311Z,99.90
2017-11-03T02:53:51.768Z,99.90
2017-11-03T02:54:55.007Z,99.90
2017-11-03T02:55:58.224Z,99.90
2017-11-03T02:57:00.697Z,99.90
2017-11-03T02:58:03.163Z,99.90
2017-11-03T02:59:05.614Z,99.90
2017-11-03T03:00:08.094Z,99.90
2017-11-03T03:01:10.591Z,99.90
2017-11-03T03:02:13.814Z,99.90
2017-11-03T03:03:17.070Z,99.90
2017-11-03T03:04:20.336Z,99.90
2017-11-03T03:05:22.803Z,99.90
2017-11-03T03:06:25.287Z,99.90
2017-11-03T03:07:27.787Z,99.90
2017-11-03T03:08:31.063Z,99.90
2017-11-03T03:09:33.530Z,99.90
2017-11-03T03:10:35.991Z,99.90
2017-11-03T03:11:38.490Z,99.90
2017-11-03T03:12:40.956Z,99.90
2017-11-03T03:13:43.432Z,99.90
2017-11-03T03:14:45.878Z,99.90
2017-11-03T03:15:49.132Z,99.90
2017-11-03T03:16:51.643Z,99.90
2017-11-03T03:17:54.879Z,99.90
2017-11-03T03:18:58.135Z,99.90
2017-11-03T03:20:00.591Z,99.90
2017-11-03T03:21:03.140Z,99.90
2017-11-03T03:22:05.600Z,99.90
2017-11-03T03:23:08.041Z,99.90
2017-11-03T03:24:10.529Z,99.90
2017-11-03T03:25:12.992Z,99.90
2017-11-03T03:26:15.462Z,99.90
2017-11-03T03:27:17.949Z,99.90
2017-11-03T03:28:20.462Z,99.90
2017-11-03T03:29:23.678Z,99.90
2017-11-03T03:30:26.146Z,99.90
2017-11-03T03:31:28.623Z,99.90
2017-11-03T03:32:31.188Z,99.90
2017-11-03T03:33:34.369Z,99.90
2017-11-03T03:34:36.839Z,99.90
2017-11-03T03:35:40.060Z,99.90
2017-11-03T03:36:42.607Z,99.90
2017-11-03T03:37:45.910Z,99.90
2017-11-03T03:38:48.457Z,99.90
2017-11-03T03:39:50.938Z,99.90
2017-11-03T03:40:53.389Z,99.90
2017-11-03T03:41:55.858Z,99.90
2017-11-03T03:42:59.121Z,99.90
2017-11-03T03:44:01.575Z,99.90
2017-11-03T03:45:04.037Z,99.90
2017-11-03T03:46:07.262Z,99.90
2017-11-03T03:47:09.803Z,99.90
2017-11-03T03:48:13.067Z,99.90
2017-11-03T03:49:15.529Z,99.90
2017-11-03T03:50:17.982Z,99.90
2017-11-03T03:51:20.538Z,99.90
2017-11-03T03:52:23.778Z,99.90
2017-11-03T03:53:26.319Z,99.90
2017-11-03T03:54:28.822Z,99.90
2017-11-03T03:55:32.081Z,99.90
2017-11-03T03:56:34.550Z,99.90
2017-11-03T03:57:37.039Z,99.90
2017-11-03T03:58:39.498Z,99.90
2017-11-03T03:59:41.967Z,99.90
2017-11-03T04:00:45.215Z,99.90
2017-11-03T04:01:48.434Z,99.90
2017-11-03T04:02:50.925Z,99.90
2017-11-03T04:03:53.372Z,99.90
2017-11-03T04:04:55.837Z,99.90
2017-11-03T04:05:58.308Z,99.90
2017-11-03T04:07:00.879Z,99.90
2017-11-03T04:08:04.110Z,99.90
2017-11-03T04:09:07.378Z,99.90
2017-11-03T04:10:10.659Z,99.90
2017-11-03T04:11:13.245Z,99.90
2017-11-03T04:12:15.714Z,99.90
2017-11-03T04:13:18.179Z,99.90
2017-11-03T04:14:21.410Z,99.90
2017-11-03T04:15:23.906Z,99.90
2017-11-03T04:16:26.394Z,99.90
2017-11-03T04:17:28.860Z,99.90
2017-11-03T04:18:31.328Z,99.90
2017-11-03T04:19:33.857Z,99.90
2017-11-03T04:20:36.366Z,99.90
2017-11-03T04:21:39.585Z,99.90
2017-11-03T04:22:42.075Z,99.90
2017-11-03T04:23:44.537Z,99.90
2017-11-03T04:24:47.109Z,99.90
2017-11-03T04:25:50.415Z,99.90
2017-11-03T04:26:53.646Z,99.90
2017-11-03T04:27:56.108Z,99.90
2017-11-03T04:28:58.554Z,99.90
2017-11-03T04:30:01.143Z,99.90
2017-11-03T04:31:04.372Z,99.90
2017-11-03T04:32:06.842Z,99.90
2017-11-03T04:33:09.302Z,99.90
2017-11-03T04:34:11.767Z,99.90
2017-11-03T04:35:15.023Z,99.90
2017-11-03T04:36:17.537Z,99.90
2017-11-03T04:37:20.762Z,99.90
2017-11-03T04:38:23.310Z,99.90
2017-11-03T04:39:26.523Z,99.90
2017-11-03T04:40:29.010Z,99.90
2017-11-03T04:41:31.467Z,99.90
2017-11-03T04:42:34.769Z,99.90
2017-11-03T04:43:37.225Z,99.90
2017-11-03T04:44:39.706Z,99.90
2017-11-03T04:45:42.200Z,99.90
2017-11-03T04:46:44.650Z,99.90
2017-11-03T04:47:47.227Z,99.90
2017-11-03T04:48:49.670Z,99.90
2017-11-03T04:49:52.910Z,99.90
2017-11-03T04:50:55.422Z,99.90
2017-11-03T04:51:57.980Z,99.90
2017-11-03T04:53:01.245Z,99.90
2017-11-03T04:54:03.710Z,99.90
2017-11-03T04:55:06.173Z,99.90
2017-11-03T04:56:09.422Z,99.90
2017-11-03T04:57:11.892Z,99.90
2017-11-03T04:58:14.391Z,99.90
2017-11-03T04:59:16.895Z,99.90
2017-11-03T05:00:19.377Z,99.90
2017-11-03T05:01:21.970Z,99.90
2017-11-03T05:02:24.426Z,99.90
2017-11-03T05:03:26.914Z,99.90
2017-11-03T05:04:29.405Z,99.90
2017-11-03T05:05:32.674Z,99.90
2017-11-03T05:06:35.144Z,99.90
2017-11-03T05:07:37.614Z,99.90
2017-11-03T05:08:40.074Z,99.90
2017-11-03T05:09:42.525Z,99.90
2017-11-03T05:10:44.987Z,99.90
2017-11-03T05:11:47.510Z,99.90
2017-11-03T05:12:50.768Z,99.90
2017-11-03T05:13:53.246Z,99.90
2017-11-03T05:14:55.735Z,99.90
2017-11-03T05:15:58.227Z,99.90
2017-11-03T05:17:01.465Z,99.90
2017-11-03T05:18:04.694Z,99.90
2017-11-03T05:19:07.150Z,99.90
2017-11-03T05:20:09.630Z,99.90
2017-11-03T05:21:12.088Z,99.90
2017-11-03T05:22:15.348Z,99.90
2017-11-03T05:23:17.849Z,99.90
2017-11-03T05:24:21.073Z,99.90
2017-11-03T05:25:23.627Z,99.90
2017-11-03T05:26:26.158Z,99.90
2017-11-03T05:27:28.835Z,99.90
2017-11-03T05:28:31.306Z,99.90
2017-11-03T05:29:34.545Z,99.90
2017-11-03T05:30:37.785Z,99.90
2017-11-03T05:31:41.009Z,99.90
2017-11-03T05:32:43.477Z,99.90
2017-11-03T05:33:45.942Z,99.90
2017-11-03T05:34:48.407Z,99.90
2017-11-03T05:35:51.745Z,99.90
2017-11-03T05:36:54.975Z,99.90
2017-11-03T05:37:58.194Z,99.90
2017-11-03T05:39:00.950Z,99.90
2017-11-03T05:40:04.188Z,99.90
2017-11-03T05:41:07.442Z,99.90
2017-11-03T05:42:10.670Z,99.90
2017-11-03T05:43:13.240Z,99.90
2017-11-03T05:44:15.702Z,99.90
2017-11-03T05:45:18.171Z,99.90
2017-11-03T05:46:20.686Z,99.90
2017-11-03T05:47:23.916Z,99.90
2017-11-03T05:48:26.402Z,99.90
2017-11-03T05:49:28.917Z,99.90
2017-11-03T05:50:31.455Z,99.90
2017-11-03T05:51:33.918Z,99.90
2017-11-03T05:52:36.366Z,99.90
2017-11-03T05:53:38.899Z,99.90
2017-11-03T05:54:41.416Z,99.90
2017-11-03T05:55:43.937Z,99.90
2017-11-03T05:56:46.426Z,99.90
2017-11-03T05:57:48.890Z,99.90
2017-11-03T05:58:52.257Z,99.90
2017-11-03T05:59:54.718Z,99.90
2017-11-03T06:00:57.293Z,99.90
2017-11-03T06:01:59.743Z,99.90
2017-11-03T06:03:02.221Z,99.90
2017-11-03T06:04:04.690Z,99.90
2017-11-03T06:05:07.150Z,99.90
2017-11-03T06:06:09.618Z,99.90
2017-11-03T06:07:12.085Z,99.90
2017-11-03T06:08:14.546Z,99.90
2017-11-03T06:09:17.796Z,99.90
2017-11-03T06:10:21.035Z,99.90
2017-11-03T06:11:24.290Z,99.90
2017-11-03T06:12:26.763Z,99.90
2017-11-03T06:13:29.241Z,99.90
2017-11-03T06:14:32.470Z,99.90
2017-11-03T06:15:35.707Z,99.90
2017-11-03T06:16:38.982Z,99.90
2017-11-03T06:17:41.453Z,99.90
2017-11-03T06:18:43.940Z,99.90
2017-11-03T06:19:46.428Z,99.90
2017-11-03T06:20:49.664Z,99.90
2017-11-03T06:21:52.922Z,99.90
2017-11-03T06:22:56.145Z,99.90
2017-11-03T06:23:59.407Z,99.90
2017-11-03T06:25:02.655Z,99.90
2017-11-03T06:26:05.142Z,99.90
2017-11-03T06:27:07.606Z,99.90
2017-11-03T06:28:10.061Z,99.90
2017-11-03T06:29:12.527Z,99.90
2017-11-03T06:30:14.982Z,99.90
2017-11-03T06:31:17.474Z,99.90
2017-11-03T06:32:19.922Z,99.90
2017-11-03T06:33:22.433Z,99.90
2017-11-03T06:34:25.679Z,99.90
2017-11-03T06:35:28.933Z,99.90
2017-11-03T06:36:31.390Z,99.90
2017-11-03T06:37:33.850Z,99.90
2017-11-03T06:38:36.320Z,99.90
2017-11-03T06:39:38.811Z,99.90
2017-11-03T06:40:41.269Z,99.90
2017-11-03T06:41:43.734Z,99.90
2017-11-03T06:42:46.197Z,99.90
2017-11-03T06:43:49.410Z,99.90
2017-11-03T06:44:51.882Z,99.90
2017-11-03T06:45:54.343Z,99.90
2017-11-03T06:46:56.797Z,99.90
2017-11-03T06:47:59.257Z,99.90
2017-11-03T06:49:01.731Z,99.90
2017-11-03T06:50:04.196Z,99.90
2017-11-03T06:51:06.709Z,99.90
2017-11-03T06:52:09.942Z,99.90
2017-11-03T06:53:13.174Z,99.90
2017-11-03T06:54:16.446Z,99.90
2017-11-03T06:55:19.681Z,99.90
2017-11-03T06:56:22.946Z,99.90
2017-11-03T06:57:25.419Z,99.90
2017-11-03T06:58:28.656Z,99.90
2017-11-03T06:59:31.126Z,99.90
2017-11-03T07:00:33.592Z,99.90
2017-11-03T07:01:36.074Z,99.90
2017-11-03T07:02:38.566Z,99.90
2017-11-03T07:03:41.028Z,99.90
2017-11-03T07:04:43.511Z,99.90
2017-11-03T07:05:45.975Z,99.90
2017-11-03T07:06:48.502Z,99.90
2017-11-03T07:07:51.542Z,99.90
2017-11-03T07:08:54.079Z,99.90
2017-11-03T07:09:56.543Z,99.90
2017-11-03T07:10:59.010Z,99.90
2017-11-03T07:12:02.223Z,99.90
2017-11-03T07:13:05.487Z,99.90
2017-11-03T07:14:08.713Z,99.90
2017-11-03T07:15:11.934Z,99.90
2017-11-03T07:16:14.404Z,99.90
2017-11-03T07:17:16.857Z,99.90
2017-11-03T07:18:23.095Z,99.90
2017-11-03T07:19:25.563Z,99.90
2017-11-03T07:20:28.804Z,99.90
2017-11-03T07:21:32.046Z,99.90
2017-11-03T07:22:34.519Z,99.90
2017-11-03T07:23:37.017Z,99.90
2017-11-03T07:24:39.497Z,99.90
2017-11-03T07:25:41.956Z,99.90
2017-11-03T07:26:44.412Z,99.90
2017-11-03T07:27:46.903Z,99.90
2017-11-03T07:28:49.379Z,99.90
2017-11-03T07:29:52.609Z,99.90
2017-11-03T07:30:55.075Z,99.90
2017-11-03T07:31:58.943Z,99.90
2017-11-03T07:33:01.467Z,99.90
2017-11-03T07:34:04.696Z,99.90
2017-11-03T07:35:07.925Z,99.90
2017-11-03T07:36:10.394Z,99.90
2017-11-03T07:37:12.879Z,99.90
2017-11-03T07:38:16.136Z,99.90
2017-11-03T07:39:19.386Z,99.90
2017-11-03T07:40:21.872Z,99.90
2017-11-03T07:41:24.339Z,99.90
2017-11-03T07:42:27.119Z,99.90
2017-11-03T07:43:29.726Z,99.90
2017-11-03T07:44:32.225Z,99.90
2017-11-03T07:45:34.717Z,99.90
2017-11-03T07:46:37.184Z,99.90
2017-11-03T07:47:39.689Z,99.90
2017-11-03T07:48:42.920Z,99.90
2017-11-03T07:49:46.150Z,99.90
2017-11-03T07:50:48.708Z,99.90
2017-11-03T07:51:51.206Z,99.90
2017-11-03T07:52:53.663Z,99.90
2017-11-03T07:53:56.129Z,99.90
2017-11-03T07:54:58.582Z,99.90
2017-11-03T07:56:01.133Z,99.90
2017-11-03T07:57:03.632Z,99.90
2017-11-03T07:58:06.111Z,99.90
2017-11-03T07:59:08.550Z,99.90
2017-11-03T08:00:11.025Z,99.90
2017-11-03T08:01:13.509Z,99.90
2017-11-03T08:02:16.079Z,99.90
2017-11-03T08:03:18.566Z,99.90
2017-11-03T08:04:21.055Z,99.90
2017-11-03T08:05:23.511Z,99.90
2017-11-03T08:06:25.988Z,99.90
2017-11-03T08:07:28.471Z,99.90
2017-11-03T08:08:31.706Z,99.90
2017-11-03T08:09:34.185Z,99.90
2017-11-03T08:10:36.655Z,99.90
2017-11-03T08:11:39.145Z,99.90
2017-11-03T08:12:41.653Z,99.90
2017-11-03T08:13:44.104Z,99.90
2017-11-03T08:14:46.571Z,99.90
2017-11-03T08:15:49.798Z,99.90
2017-11-03T08:16:53.027Z,99.90
2017-11-03T08:17:55.611Z,99.90
2017-11-03T08:18:58.084Z,99.90
2017-11-03T08:20:00.545Z,99.90
2017-11-03T08:21:03.776Z,99.90
2017-11-03T08:22:06.253Z,99.90
2017-11-03T08:23:08.769Z,99.90
2017-11-03T08:24:11.235Z,99.90
2017-11-03T08:25:13.706Z,99.90
2017-11-03T08:26:16.234Z,99.90
2017-11-03T08:27:18.713Z,99.90
2017-11-03T08:28:21.202Z,99.90
2017-11-03T08:29:23.678Z,99.90
2017-11-03T08:30:27.041Z,99.90
2017-11-03T08:31:30.268Z,99.90
2017-11-03T08:32:33.531Z,99.90
2017-11-03T08:33:36.764Z,99.90
2017-11-03T08:34:40.015Z,99.90
2017-11-03T08:35:43.262Z,99.90
2017-11-03T08:36:45.760Z,99.90
2017-11-03T08:37:49.074Z,99.90
2017-11-03T08:38:51.532Z,99.90
2017-11-03T08:39:54.775Z,99.90
2017-11-03T08:40:57.998Z,99.90
2017-11-03T08:42:00.466Z,99.90
2017-11-03T08:43:02.938Z,99.90
2017-11-03T08:44:05.402Z,99.90
2017-11-03T08:45:07.893Z,99.90
2017-11-03T08:46:10.358Z,99.90
2017-11-03T08:47:12.839Z,99.90
2017-11-03T08:48:15.314Z,99.90
2017-11-03T08:49:18.569Z,99.90
2017-11-03T08:50:21.039Z,99.90
2017-11-03T08:51:23.534Z,99.90
2017-11-03T08:52:25.994Z,99.90
2017-11-03T08:53:28.468Z,99.90
2017-11-03T08:54:30.921Z,99.90
2017-11-03T08:55:33.385Z,99.90
2017-11-03T08:56:36.645Z,99.90
2017-11-03T08:57:39.154Z,99.90
2017-11-03T08:58:42.394Z,99.90
2017-11-03T08:59:45.622Z,99.90
2017-11-03T09:00:48.189Z,99.90
2017-11-03T09:01:50.687Z,99.90
2017-11-03T09:02:53.594Z,99.90
2017-11-03T09:03:56.162Z,99.90
2017-11-03T09:04:58.627Z,99.90
2017-11-03T09:06:01.086Z,99.90
2017-11-03T09:07:03.660Z,99.90
2017-11-03T09:08:06.162Z,99.90
2017-11-03T09:09:09.420Z,99.90
2017-11-03T09:10:11.899Z,99.90
2017-11-03T09:11:14.466Z,99.90
2017-11-03T09:12:16.984Z,99.90
2017-11-03T09:13:19.473Z,99.50
2017-11-03T09:14:21.963Z,99.30
2017-11-03T09:15:24.437Z,99.00
2017-11-03T09:16:26.903Z,99.10
2017-11-03T09:17:29.369Z,98.90
2017-11-03T09:18:31.832Z,98.80
2017-11-03T09:19:34.353Z,98.60
2017-11-03T09:20:37.598Z,98.30
2017-11-03T09:21:40.836Z,97.20
2017-11-03T09:22:44.101Z,97.00
2017-11-03T09:23:46.605Z,96.80
2017-11-03T09:24:49.839Z,96.50
2017-11-03T09:25:53.102Z,96.50
2017-11-03T09:26:55.630Z,96.40
2017-11-03T09:27:58.103Z,95.50
2017-11-03T09:29:00.554Z,95.20
2017-11-03T09:30:03.790Z,95.70
2017-11-03T09:31:07.038Z,95.70
2017-11-03T09:32:10.267Z,95.90
2017-11-03T09:33:12.740Z,95.90
2017-11-03T09:34:15.200Z,96.40
2017-11-03T09:35:17.676Z,95.70
2017-11-03T09:36:20.134Z,95.30
2017-11-03T09:37:22.608Z,95.50
2017-11-03T09:38:25.856Z,96.00
2017-11-03T09:39:29.093Z,95.50
2017-11-03T09:40:32.314Z,95.70
2017-11-03T09:41:35.568Z,95.60
2017-11-03T09:42:38.033Z,95.60
2017-11-03T09:43:40.551Z,95.30
2017-11-03T09:44:43.025Z,95.10
2017-11-03T09:45:45.589Z,94.80
2017-11-03T09:46:48.050Z,95.30
2017-11-03T09:47:50.537Z,95.40
2017-11-03T09:48:53.786Z,95.30
2017-11-03T09:49:56.263Z,95.30
2017-11-03T09:50:58.840Z,95.40
2017-11-03T09:52:01.297Z,95.50
2017-11-03T09:53:03.758Z,95.50
2017-11-03T09:54:06.270Z,95.90
2017-11-03T09:55:08.734Z,95.90
2017-11-03T09:56:11.246Z,95.80
2017-11-03T09:57:14.492Z,96.20
2017-11-03T09:58:17.727Z,96.80
2017-11-03T09:59:20.948Z,97.40
2017-11-03T10:00:23.415Z,97.10
2017-11-03T10:01:25.950Z,97.10
2017-11-03T10:02:28.423Z,97.10
2017-11-03T10:03:30.880Z,97.30
2017-11-03T10:04:34.134Z,97.40
2017-11-03T10:05:36.617Z,97.10
2017-11-03T10:06:39.105Z,96.90
2017-11-03T10:07:41.563Z,97.60
2017-11-03T10:08:44.040Z,96.80
2017-11-03T10:09:46.541Z,96.30
2017-11-03T10:10:49.785Z,97.00
2017-11-03T10:11:53.019Z,97.40
2017-11-03T10:12:56.243Z,97.00
2017-11-03T10:13:58.707Z,97.00
2017-11-03T10:15:01.199Z,96.60
2017-11-03T10:16:03.659Z,96.50
2017-11-03T10:17:06.134Z,96.70
2017-11-03T10:18:08.643Z,96.50
2017-11-03T10:19:12.024Z,96.30
2017-11-03T10:20:14.495Z,96.20
2017-11-03T10:21:16.954Z,96.30
2017-11-03T10:22:19.442Z,96.60
2017-11-03T10:23:21.898Z,96.30
2017-11-03T10:24:24.386Z,96.10
2017-11-03T10:25:26.851Z,96.10
2017-11-03T10:26:29.351Z,96.40
2017-11-03T10:27:31.858Z,96.60
2017-11-03T10:28:34.339Z,95.90
2017-11-03T10:29:36.897Z,95.60
2017-11-03T10:30:39.394Z,95.70
2017-11-03T10:31:41.946Z,95.60
2017-11-03T10:32:44.481Z,95.40
2017-11-03T10:33:46.942Z,95.70
2017-11-03T10:34:49.446Z,95.50
2017-11-03T10:35:51.945Z,96.00
2017-11-03T10:36:55.211Z,95.20
2017-11-03T10:37:57.688Z,95.20
2017-11-03T10:39:00.917Z,95.40
2017-11-03T10:40:03.391Z,95.40
2017-11-03T10:41:05.902Z,95.20
2017-11-03T10:42:09.261Z,95.80
2017-11-03T10:43:11.761Z,95.80
2017-11-03T10:44:14.219Z,95.30
2017-11-03T10:45:16.739Z,95.20
2017-11-03T10:46:19.815Z,95.60
2017-11-03T10:47:22.299Z,95.30
2017-11-03T10:48:24.798Z,95.40
2017-11-03T10:49:27.259Z,95.40
2017-11-03T10:50:29.726Z,95.40
2017-11-03T10:51:32.248Z,95.30
2017-11-03T10:52:34.728Z,95.00
2017-11-03T10:53:37.193Z,94.90
2017-11-03T10:54:39.689Z,94.80
2017-11-03T10:55:42.197Z,94.70
2017-11-03T10:56:44.665Z,94.80
2017-11-03T10:57:47.129Z,94.70
2017-11-03T10:58:50.382Z,94.90
2017-11-03T10:59:53.650Z,94.90
2017-11-03T11:00:56.124Z,94.90
2017-11-03T11:01:58.576Z,95.00
2017-11-03T11:03:01.825Z,94.80
2017-11-03T11:04:04.345Z,94.80
2017-11-03T11:05:07.572Z,94.50
2017-11-03T11:06:10.834Z,94.40
2017-11-03T11:07:13.310Z,94.40
2017-11-03T11:08:15.807Z,94.40
2017-11-03T11:09:18.331Z,94.40
2017-11-03T11:10:20.818Z,94.30
2017-11-03T11:11:24.058Z,94.70
2017-11-03T11:12:27.321Z,94.80
2017-11-03T11:13:29.833Z,94.60
2017-11-03T11:14:33.096Z,94.60
2017-11-03T11:15:35.585Z,94.60
2017-11-03T11:16:38.141Z,94.20
2017-11-03T11:17:40.634Z,94.70
2017-11-03T11:18:43.869Z,94.80
2017-11-03T11:19:46.323Z,94.60
2017-11-03T11:20:49.585Z,94.90
2017-11-03T11:21:52.050Z,94.90
2017-11-03T11:22:54.526Z,94.50
2017-11-03T11:23:56.978Z,94.90
2017-11-03T11:24:59.448Z,94.80
2017-11-03T11:26:01.905Z,94.80
2017-11-03T11:27:04.376Z,94.50
2017-11-03T11:28:06.858Z,94.60
2017-11-03T11:29:09.322Z,94.10
2017-11-03T11:30:11.889Z,93.90
2017-11-03T11:31:15.127Z,93.80
2017-11-03T11:32:18.359Z,94.00
2017-11-03T11:33:21.618Z,93.60
2017-11-03T11:34:24.849Z,93.90
2017-11-03T11:35:28.092Z,93.50
2017-11-03T11:36:30.651Z,93.50
2017-11-03T11:37:33.188Z,94.00
2017-11-03T11:38:35.643Z,93.80
2017-11-03T11:39:38.140Z,93.60
2017-11-03T11:40:40.586Z,93.50
2017-11-03T11:41:43.064Z,94.20
2017-11-03T11:42:45.598Z,93.80
2017-11-03T11:43:48.070Z,93.80
2017-11-03T11:44:50.585Z,94.30
2017-11-03T11:45:53.036Z,94.20
2017-11-03T11:46:55.496Z,94.00
2017-11-03T11:47:57.964Z,93.80
2017-11-03T11:49:00.439Z,93.80
2017-11-03T11:50:02.949Z,93.60
2017-11-03T11:51:06.173Z,94.40
2017-11-03T11:52:08.629Z,94.30
2017-11-03T11:53:11.102Z,94.00
2017-11-03T11:54:13.559Z,93.40
2017-11-03T11:55:16.799Z,92.90
2017-11-03T11:56:20.030Z,92.40
2017-11-03T11:57:22.497Z,92.30
2017-11-03T11:58:24.958Z,92.10
2017-11-03T11:59:27.435Z,91.90
2017-11-03T12:00:29.956Z,92.40
2017-11-03T12:01:33.251Z,92.30
2017-11-03T12:02:35.710Z,92.30
2017-11-03T12:03:38.970Z,92.90
2017-11-03T12:04:41.436Z,92.80
2017-11-03T12:05:43.893Z,92.90
2017-11-03T12:06:46.363Z,93.00
2017-11-03T12:07:48.826Z,93.00
2017-11-03T12:08:52.830Z,92.70
2017-11-03T12:09:55.402Z,92.60
2017-11-03T12:10:57.858Z,92.20
2017-11-03T12:12:01.134Z,92.40
2017-11-03T12:13:03.656Z,92.40
2017-11-03T12:14:06.102Z,92.70
2017-11-03T12:15:08.593Z,92.40
2017-11-03T12:16:11.826Z,92.70
2017-11-03T12:17:15.084Z,92.60
2017-11-03T12:18:17.742Z,92.50
2017-11-03T12:19:20.196Z,92.50
2017-11-03T12:20:22.669Z,92.80
2017-11-03T12:21:25.153Z,92.50
2017-11-03T12:22:27.660Z,91.70
2017-11-03T12:23:30.122Z,91.70
2017-11-03T12:24:33.338Z,92.10
2017-11-03T12:25:35.852Z,92.00
2017-11-03T12:26:38.425Z,92.10
2017-11-03T12:27:40.879Z,92.20
2017-11-03T12:28:44.104Z,92.50
2017-11-03T12:29:46.567Z,92.50
2017-11-03T12:30:49.042Z,92.80
2017-11-03T12:31:52.275Z,93.20
2017-11-03T12:32:55.498Z,93.60
2017-11-03T12:33:58.069Z,93.50
2017-11-03T12:35:00.583Z,93.40
2017-11-03T12:36:03.033Z,93.20
2017-11-03T12:37:05.514Z,93.60
2017-11-03T12:38:08.730Z,93.70
2017-11-03T12:39:11.219Z,93.70
2017-11-03T12:40:13.687Z,93.50
2017-11-03T12:41:16.169Z,93.20
2017-11-03T12:42:18.625Z,93.50
2017-11-03T12:43:21.101Z,93.60
2017-11-03T12:44:23.573Z,93.80
2017-11-03T12:45:26.666Z,94.00
2017-11-03T12:46:29.149Z,94.00
2017-11-03T12:47:31.641Z,94.40
2017-11-03T12:48:34.146Z,94.40
2017-11-03T12:49:36.626Z,94.30
2017-11-03T12:50:39.121Z,94.40
2017-11-03T12:51:41.630Z,94.70
2017-11-03T12:52:44.222Z,94.40
2017-11-03T12:53:47.481Z,94.50
2017-11-03T12:54:49.940Z,94.50
2017-11-03T12:55:52.409Z,94.40
2017-11-03T12:56:54.951Z,94.40
2017-11-03T12:57:58.166Z,94.20
2017-11-03T12:59:00.634Z,94.20
2017-11-03T13:00:03.111Z,94.90
2017-11-03T13:01:07.105Z,94.40
2017-11-03T13:02:09.591Z,94.40
2017-11-03T13:03:12.086Z,94.50
2017-11-03T13:04:14.647Z,94.40
2017-11-03T13:05:17.218Z,94.60
2017-11-03T13:06:20.150Z,94.70
2017-11-03T13:07:22.612Z,94.80
2017-11-03T13:08:25.079Z,94.80
2017-11-03T13:09:28.294Z,95.00
2017-11-03T13:10:30.787Z,94.90
2017-11-03T13:11:33.343Z,95.00
2017-11-03T13:12:35.809Z,95.10
2017-11-03T13:13:39.034Z,95.40
2017-11-03T13:14:42.293Z,95.10
2017-11-03T13:15:44.854Z,95.00
2017-11-03T13:16:47.353Z,95.10
2017-11-03T13:17:49.840Z,95.20
2017-11-03T13:18:52.357Z,95.20
2017-11-03T13:19:54.802Z,95.00
2017-11-03T13:20:58.026Z,95.30
2017-11-03T13:22:00.486Z,95.30
2017-11-03T13:23:02.950Z,95.50
2017-11-03T13:24:05.447Z,95.70
2017-11-03T13:25:07.906Z,95.70
2017-11-03T13:26:10.395Z,95.60
2017-11-03T13:27:12.861Z,95.70